createdAt,value
2023-10-21T00:02:45.365Z,22.70
2023-10-21T00:07:46.870Z,22.70
2023-10-21T00:12:48.324Z,22.70
2023-10-21T00:17:49.845Z,22.70
2023-10-21T00:22:51.327Z,22.70
2023-10-21T00:27:52.778Z,22.70
2023-10-21T00:32:54.285Z,22.70
2023-10-21T00:37:55.794Z,22.70
2023-10-21T00:42:57.217Z,22.70
2023-10-21T00:47:58.697Z,22.70
2023-10-21T00:53:00.187Z,22.70
2023-10-21T00:58:01.644Z,22.70
2023-10-21T01:03:03.207Z,22.70
2023-10-21T01:08:04.847Z,22.70
2023-10-21T01:13:06.301Z,22.70
2023-10-21T01:18:07.838Z,22.70
2023-10-21T01:23:09.391Z,22.70
2023-10-21T01:28:10.860Z,22.70
2023-10-21T01:33:12.410Z,22.70
2023-10-21T01:38:13.917Z,22.70
2023-10-21T01:43:15.384Z,22.70
2023-10-21T01:48:16.865Z,22.70
2023-10-21T01:53:18.396Z,22.70
2023-10-21T01:58:19.852Z,22.70
2023-10-21T02:03:21.400Z,22.70
2023-10-21T02:08:23.085Z,22.70
2023-10-21T02:13:24.541Z,22.70
2023-10-21T02:18:26.019Z,22.70
2023-10-21T02:23:27.588Z,22.70
2023-10-21T02:28:29.084Z,22.70
2023-10-21T02:33:30.662Z,22.70
2023-10-21T02:38:32.172Z,22.70
2023-10-21T02:43:33.635Z,22.70
2023-10-21T02:48:35.153Z,22.70
2023-10-21T02:53:36.812Z,22.70
2023-10-21T02:58:38.250Z,22.70
2023-10-21T03:03:39.843Z,22.70
2023-10-21T03:08:41.432Z,22.70
2023-10-21T03:13:42.852Z,22.70
2023-10-21T03:18:44.338Z,22.70
2023-10-21T03:23:45.856Z,22.70
2023-10-21T03:28:47.359Z,22.70
2023-10-21T03:33:48.869Z,22.70
2023-10-21T03:38:50.404Z,22.70
2023-10-21T03:43:51.903Z,22.70
2023-10-21T03:48:53.513Z,22.70
2023-10-21T03:53:55.042Z,22.70
2023-10-21T03:58:56.498Z,22.70
2023-10-21T04:03:58.002Z,22.70
2023-10-21T04:08:59.552Z,22.70
2023-10-21T04:14:01.018Z,22.70
2023-10-21T04:19:02.445Z,22.70
2023-10-21T04:24:03.971Z,22.70
2023-10-21T04:29:05.440Z,22.70
2023-10-21T04:34:06.906Z,22.70
2023-10-21T04:39:08.484Z,22.70
2023-10-21T04:44:10.131Z,22.70
2023-10-21T04:49:11.643Z,22.70
2023-10-21T04:54:13.115Z,22.70
2023-10-21T04:59:14.604Z,22.70
2023-10-21T05:04:16.201Z,22.70
2023-10-21T05:09:17.765Z,22.70
2023-10-21T05:14:19.291Z,22.70
2023-10-21T05:19:22.769Z,22.70
2023-10-21T05:24:24.468Z,22.70
2023-10-21T05:29:25.978Z,22.70
2023-10-21T05:34:27.523Z,22.70
2023-10-21T05:39:29.143Z,22.70
2023-10-21T05:44:41.969Z,22.70
2023-10-21T05:49:49.510Z,22.70
2023-10-21T05:54:50.950Z,22.70
2023-10-21T05:59:52.440Z,22.70
2023-10-21T06:04:53.900Z,22.80
2023-10-21T06:09:55.348Z,22.80
2023-10-21T06:14:56.891Z,22.70
2023-10-21T06:19:58.421Z,22.70
2023-10-21T06:24:59.872Z,22.70
2023-10-21T06:30:01.378Z,22.70
2023-10-21T06:35:02.845Z,22.70
2023-10-21T06:40:04.289Z,22.70
2023-10-21T06:45:05.773Z,22.70
2023-10-21T06:50:07.219Z,22.70
2023-10-21T06:55:08.689Z,22.70
2023-10-21T07:00:10.244Z,22.70
2023-10-21T07:05:11.829Z,22.70
2023-10-21T07:10:13.438Z,22.70
2023-10-21T07:15:14.929Z,22.70
2023-10-21T07:20:16.414Z,22.70
2023-10-21T07:25:17.862Z,22.70
2023-10-21T07:30:19.419Z,22.70
2023-10-21T07:35:21.031Z,22.70
2023-10-21T07:40:22.482Z,22.70
2023-10-21T07:45:23.971Z,22.70
2023-10-21T07:50:25.494Z,22.70
2023-10-21T07:55:26.959Z,22.70
2023-10-21T08:00:28.408Z,22.70
2023-10-21T08:05:29.926Z,22.70
2023-10-21T08:10:31.407Z,22.70
2023-10-21T08:15:32.938Z,22.70
2023-10-21T08:20:34.439Z,22.70
2023-10-21T08:25:35.946Z,22.70
2023-10-21T08:30:37.598Z,22.70
2023-10-21T08:35:39.132Z,22.70
2023-10-21T08:40:40.631Z,22.70
2023-10-21T08:45:42.140Z,22.70
2023-10-21T08:50:43.721Z,22.70
2023-10-21T08:55:45.215Z,22.70
2023-10-21T09:00:46.666Z,22.70
2023-10-21T09:05:48.121Z,22.70
2023-10-21T09:10:49.564Z,22.70
2023-10-21T09:15:51.109Z,22.70
2023-10-21T09:20:52.648Z,22.70
2023-10-21T09:25:54.105Z,22.70
2023-10-21T09:30:55.538Z,22.70
2023-10-21T09:36:02.768Z,22.70
2023-10-21T09:41:07.570Z,22.80
2023-10-21T09:46:09.055Z,22.70
2023-10-21T09:51:10.709Z,22.70
2023-10-21T09:56:12.264Z,22.70
2023-10-21T10:01:13.776Z,22.70
2023-10-21T10:06:15.271Z,22.80
2023-10-21T10:11:16.780Z,22.80
2023-10-21T10:16:18.297Z,22.80
2023-10-21T10:21:19.938Z,22.80
2023-10-21T10:26:21.482Z,22.80
2023-10-21T10:31:22.951Z,22.80
2023-10-21T10:36:24.429Z,22.80
2023-10-21T10:41:25.903Z,22.80
2023-10-21T10:46:27.355Z,22.80
2023-10-21T10:51:29.059Z,22.70
2023-10-21T10:56:30.767Z,22.70
2023-10-21T11:01:32.253Z,22.80
2023-10-21T11:06:33.855Z,22.80
2023-10-21T11:11:35.359Z,22.80
2023-10-21T11:16:36.860Z,22.80
2023-10-21T11:21:38.368Z,22.80
2023-10-21T11:26:39.810Z,22.80
2023-10-21T11:31:41.384Z,22.80
2023-10-21T11:36:42.918Z,22.80
2023-10-21T11:41:44.412Z,22.80
2023-10-21T11:46:46.001Z,22.80
2023-10-21T11:51:47.609Z,22.80
2023-10-21T11:56:49.092Z,22.80
2023-10-21T12:01:50.541Z,22.80
2023-10-21T12:06:51.978Z,22.80
2023-10-21T12:11:53.426Z,22.90
2023-10-21T12:16:58.204Z,22.90
2023-10-21T12:22:09.680Z,22.90
2023-10-21T12:27:11.138Z,23.00
2023-10-21T12:32:12.612Z,23.00
2023-10-21T12:37:14.044Z,23.00
2023-10-21T12:42:15.500Z,23.00
2023-10-21T12:47:16.983Z,23.00
2023-10-21T12:52:18.478Z,23.00
2023-10-21T12:57:20.018Z,23.00
2023-10-21T13:02:21.541Z,23.00
2023-10-21T13:07:22.980Z,23.10
2023-10-21T13:12:24.475Z,23.10
2023-10-21T13:17:25.916Z,23.10
2023-10-21T13:22:27.383Z,23.10
2023-10-21T13:27:28.863Z,23.10
2023-10-21T13:32:30.334Z,23.10
2023-10-21T13:37:31.771Z,23.10
2023-10-21T13:42:33.219Z,23.10
2023-10-21T13:47:34.720Z,23.10
2023-10-21T13:52:36.247Z,23.20
2023-10-21T13:57:38.056Z,23.20
2023-10-21T14:02:39.661Z,23.20
2023-10-21T14:07:41.222Z,23.20
2023-10-21T14:12:42.681Z,23.20
2023-10-21T14:17:44.182Z,23.10
2023-10-21T14:22:45.683Z,23.10
2023-10-21T14:27:47.164Z,23.00
2023-10-21T14:32:48.688Z,23.00
2023-10-21T14:37:50.194Z,23.00
2023-10-21T14:42:51.686Z,22.90
2023-10-21T14:47:53.202Z,22.90
2023-10-21T14:52:54.668Z,22.80
2023-10-21T14:57:56.113Z,22.80
2023-10-21T15:02:57.633Z,22.80
2023-10-21T15:07:59.202Z,22.80
2023-10-21T15:13:00.663Z,22.80
2023-10-21T15:18:02.178Z,22.80
2023-10-21T15:23:03.656Z,22.80
2023-10-21T15:28:05.120Z,22.80
2023-10-21T15:33:06.686Z,22.80
2023-10-21T15:38:08.247Z,22.80
2023-10-21T15:43:09.860Z,22.80
2023-10-21T15:48:11.458Z,22.80
2023-10-21T15:53:12.979Z,22.80
2023-10-21T15:58:14.470Z,22.80
2023-10-21T16:03:16.033Z,22.80
2023-10-21T16:08:17.647Z,22.80
2023-10-21T16:13:19.108Z,22.80
2023-10-21T16:18:20.704Z,22.90
2023-10-21T16:23:22.238Z,22.90
2023-10-21T16:28:23.679Z,23.00
2023-10-21T16:33:25.276Z,23.00
2023-10-21T16:38:26.963Z,23.10
2023-10-21T16:43:28.403Z,23.10
2023-10-21T16:48:29.883Z,23.00
2023-10-21T16:53:31.418Z,23.10
2023-10-21T16:58:32.867Z,23.00
2023-10-21T17:03:34.346Z,23.00
2023-10-21T17:08:35.873Z,23.00
2023-10-21T17:13:37.305Z,23.00
2023-10-21T17:18:38.795Z,23.00
2023-10-21T17:23:40.278Z,23.00
2023-10-21T17:28:41.747Z,23.00
2023-10-21T17:33:50.069Z,23.10
2023-10-21T17:38:53.752Z,23.10
2023-10-21T17:43:55.282Z,23.10
2023-10-21T17:48:56.926Z,23.10
2023-10-21T17:53:58.435Z,23.20
2023-10-21T17:58:59.875Z,23.10
2023-10-21T18:04:01.514Z,23.20
2023-10-21T18:09:03.225Z,23.20
2023-10-21T18:14:04.698Z,23.20
2023-10-21T18:19:06.183Z,23.30
2023-10-21T18:24:07.626Z,23.30
2023-10-21T18:29:09.080Z,23.40
2023-10-21T18:34:10.517Z,23.40
2023-10-21T18:39:12.020Z,23.50
2023-10-21T18:44:13.511Z,23.40
2023-10-21T18:49:15.001Z,23.60
2023-10-21T18:54:16.455Z,23.60
2023-10-21T18:59:17.913Z,23.60
2023-10-21T19:04:19.443Z,23.70
2023-10-21T19:09:20.996Z,23.70
2023-10-21T19:14:22.439Z,23.70
2023-10-21T19:19:23.903Z,23.80
2023-10-21T19:24:25.412Z,23.80
2023-10-21T19:29:26.921Z,23.80
2023-10-21T19:34:28.370Z,23.90
2023-10-21T19:39:29.880Z,23.80
2023-10-21T19:44:31.336Z,23.90
2023-10-21T19:49:32.788Z,23.90
2023-10-21T19:54:34.250Z,23.90
2023-10-21T19:59:35.986Z,23.90
2023-10-21T20:04:37.627Z,23.90
2023-10-21T20:09:39.373Z,23.80
2023-10-21T20:14:41.096Z,23.80
2023-10-21T20:19:42.537Z,23.80
2023-10-21T20:24:44.009Z,23.80
2023-10-21T20:29:45.507Z,23.70
2023-10-21T20:34:46.976Z,23.70
2023-10-21T20:39:49.454Z,23.70
2023-10-21T20:44:51.062Z,23.70
2023-10-21T20:49:52.522Z,23.70
2023-10-21T20:54:54.096Z,23.70
2023-10-21T20:59:55.545Z,23.70
2023-10-21T21:05:00.585Z,23.70
2023-10-21T21:10:06.968Z,23.70
2023-10-21T21:15:08.407Z,23.70
2023-10-21T21:20:09.835Z,23.60
2023-10-21T21:25:11.298Z,23.70
2023-10-21T21:30:12.833Z,23.70
2023-10-21T21:35:14.312Z,23.60
2023-10-21T21:40:15.768Z,23.60
2023-10-21T21:45:17.283Z,23.60
2023-10-21T21:50:18.784Z,23.60
2023-10-21T21:55:20.237Z,23.60
2023-10-21T22:00:21.716Z,23.60
2023-10-21T22:05:23.201Z,23.50
2023-10-21T22:10:24.656Z,23.50
2023-10-21T22:15:26.142Z,23.50
2023-10-21T22:20:27.663Z,23.40
2023-10-21T22:25:29.123Z,23.50
2023-10-21T22:30:30.566Z,23.50
2023-10-21T22:35:32.038Z,23.50
2023-10-21T22:40:33.492Z,23.50
2023-10-21T22:45:34.946Z,23.50
2023-10-21T22:50:36.449Z,23.50
2023-10-21T22:55:37.969Z,23.50
2023-10-21T23:00:39.400Z,23.50
2023-10-21T23:05:40.859Z,23.50
2023-10-21T23:10:42.328Z,23.50
2023-10-21T23:15:43.826Z,23.50
2023-10-21T23:20:45.385Z,23.50
2023-10-21T23:25:46.960Z,23.50
2023-10-21T23:30:48.417Z,23.50
2023-10-21T23:35:49.908Z,23.50
2023-10-21T23:40:51.370Z,23.50
2023-10-21T23:45:52.860Z,23.50
2023-10-21T23:50:54.387Z,23.50
2023-10-21T23:55:55.861Z,23.50
